Time;durP1;ratioP1;P1;durP2;ratioP2;P2;SDS_P1;SDS_P2;PMS_P1;PMS_P2;Temp;Humidity;BMP_temperature;BMP_pressure;BME280_temperature;BME280_humidity;BME280_pressure;Samples;Min_cycle;Max_cycle;Signal;HPM_P1;HPM_P2
2022/09/17 00:05:19;;;;;;;;;;;11.20;99.90;;;;;;12575349;28;20470;-38
2022/09/17 00:11:23;;;;;;;;;;;11.10;99.90;;;;;;12566837;28;19927;-38
2022/09/17 00:17:25;;;;;;;;;;;11.20;99.90;;;;;;12583487;28;19928;-38
2022/09/17 00:23:27;;;;;;;;;;;11.00;99.90;;;;;;12582748;28;19924;-40
2022/09/17 00:29:29;;;;;;;;;;;11.10;99.90;;;;;;12588461;28;20308;-38
2022/09/17 00:35:31;;;;;;;;;;;11.10;99.90;;;;;;12573553;28;19975;-39
2022/09/17 00:41:34;;;;;;;;;;;11.30;99.90;;;;;;12577887;28;20300;-38
2022/09/17 00:47:45;;;;;;;;;;;11.10;99.90;;;;;;12572688;28;20395;-38
2022/09/17 00:53:47;;;;;;;;;;;11.20;99.90;;;;;;12576439;28;19936;-39
2022/09/17 00:59:49;;;;;;;;;;;11.10;99.90;;;;;;12563276;28;19933;-39
2022/09/17 01:05:54;;;;;;;;;;;11.10;99.90;;;;;;12579812;28;19929;-38
2022/09/17 01:11:56;;;;;;;;;;;11.10;99.90;;;;;;12580694;28;19924;-38
2022/09/17 01:18:20;;;;;;;;;;;11.10;99.90;;;;;;12595760;28;19928;-38
2022/09/17 01:24:41;;;;;;;;;;;11.00;99.90;;;;;;12572050;28;19924;-38
2022/09/17 01:31:04;;;;;;;;;;;11.00;99.90;;;;;;12562594;28;19978;-38
2022/09/17 01:37:14;;;;;;;;;;;10.90;99.90;;;;;;12582919;28;19963;-38
2022/09/17 01:43:22;;;;;;;;;;;10.80;99.90;;;;;;12574351;28;20011;-38
2022/09/17 01:49:24;;;;;;;;;;;10.90;99.90;;;;;;12576109;28;19924;-39
2022/09/17 01:55:30;;;;;;;;;;;10.90;99.90;;;;;;12580894;28;19925;-38
2022/09/17 02:01:34;;;;;;;;;;;10.90;99.90;;;;;;12588444;28;19928;-38
2022/09/17 02:07:49;;;;;;;;;;;10.80;99.90;;;;;;12599485;28;19931;-38
2022/09/17 02:14:20;;;;;;;;;;;10.90;99.90;;;;;;12590168;28;20053;-38
2022/09/17 02:20:25;;;;;;;;;;;10.90;99.90;;;;;;12564080;28;20032;-38
2022/09/17 02:26:27;;;;;;;;;;;10.80;99.90;;;;;;12570802;28;19935;-39
2022/09/17 02:32:29;;;;;;;;;;;10.70;99.90;;;;;;12578670;28;19929;-39
2022/09/17 02:38:31;;;;;;;;;;;10.60;99.90;;;;;;12580740;28;20019;-38
2022/09/17 02:44:37;;;;;;;;;;;10.70;99.90;;;;;;12580993;28;20039;-38
2022/09/17 02:50:39;;;;;;;;;;;10.60;99.90;;;;;;12577511;28;20316;-38
2022/09/17 02:57:00;;;;;;;;;;;10.60;99.90;;;;;;12573059;28;19928;-38
2022/09/17 03:03:12;;;;;;;;;;;10.60;99.90;;;;;;12578683;28;19963;-38
2022/09/17 03:09:14;;;;;;;;;;;10.60;99.90;;;;;;12573064;28;19950;-38
2022/09/17 03:15:17;;;;;;;;;;;10.60;99.90;;;;;;12581776;28;19924;-38
2022/09/17 03:21:19;;;;;;;;;;;10.60;99.90;;;;;;12586293;28;19932;-38
2022/09/17 03:27:21;;;;;;;;;;;10.50;99.90;;;;;;12576030;28;19928;-37
2022/09/17 03:33:23;;;;;;;;;;;10.40;99.90;;;;;;12577984;28;19937;-39
2022/09/17 03:39:25;;;;;;;;;;;10.30;99.90;;;;;;12575351;28;19951;-38
2022/09/17 03:45:26;;;;;;;;;;;10.30;99.90;;;;;;12578184;28;19925;-38
2022/09/17 03:51:29;;;;;;;;;;;10.30;99.90;;;;;;12579450;28;20304;-38
2022/09/17 03:57:30;;;;;;;;;;;10.20;99.90;;;;;;12572002;28;19929;-38
2022/09/17 04:03:32;;;;;;;;;;;10.10;99.90;;;;;;12557982;28;20350;-38
2022/09/17 04:09:34;;;;;;;;;;;10.00;99.90;;;;;;12568487;28;21168;-38
2022/09/17 04:15:36;;;;;;;;;;;10.10;99.90;;;;;;12564041;28;20326;-38
2022/09/17 04:21:38;;;;;;;;;;;10.00;99.90;;;;;;12576855;28;19983;-38
2022/09/17 04:27:39;;;;;;;;;;;10.00;99.90;;;;;;12579765;28;20066;-38
2022/09/17 04:33:41;;;;;;;;;;;9.80;99.90;;;;;;12561792;28;20483;-38
2022/09/17 04:39:43;;;;;;;;;;;9.70;99.90;;;;;;12558735;28;19924;-38
2022/09/17 04:45:46;;;;;;;;;;;9.70;99.90;;;;;;12572723;28;20345;-38
2022/09/17 04:51:47;;;;;;;;;;;9.70;99.90;;;;;;12558346;28;20375;-38
2022/09/17 04:57:50;;;;;;;;;;;9.70;99.90;;;;;;12575437;28;20023;-38
2022/09/17 05:03:52;;;;;;;;;;;9.70;99.90;;;;;;12577564;28;20019;-38
2022/09/17 05:09:54;;;;;;;;;;;9.70;99.90;;;;;;12546672;28;19924;-38
2022/09/17 05:15:56;;;;;;;;;;;9.70;99.90;;;;;;12581794;28;19924;-38
2022/09/17 05:21:58;;;;;;;;;;;9.70;99.90;;;;;;12595160;28;19969;-38
2022/09/17 05:28:00;;;;;;;;;;;9.50;99.90;;;;;;12583693;28;19951;-39
2022/09/17 05:34:02;;;;;;;;;;;9.50;99.90;;;;;;12575230;28;19969;-39
2022/09/17 05:40:05;;;;;;;;;;;9.50;99.90;;;;;;12576525;28;20380;-38
2022/09/17 05:46:07;;;;;;;;;;;9.50;99.90;;;;;;12550893;28;19928;-38
2022/09/17 05:52:09;;;;;;;;;;;9.60;99.90;;;;;;12579095;28;19928;-38
2022/09/17 05:58:12;;;;;;;;;;;9.50;99.90;;;;;;12577554;28;19928;-38
2022/09/17 06:04:14;;;;;;;;;;;9.50;99.90;;;;;;12578780;28;19947;-38
2022/09/17 06:10:16;;;;;;;;;;;9.50;99.90;;;;;;12584913;28;19935;-38
2022/09/17 06:16:19;;;;;;;;;;;9.50;99.90;;;;;;12568619;28;19931;-39
2022/09/17 06:22:22;;;;;;;;;;;9.50;99.90;;;;;;12570729;28;19928;-38
2022/09/17 06:28:24;;;;;;;;;;;9.60;99.90;;;;;;12573745;28;19931;-38
2022/09/17 06:34:26;;;;;;;;;;;9.60;99.90;;;;;;12560455;28;20381;-38
2022/09/17 06:40:28;;;;;;;;;;;9.70;99.90;;;;;;12553769;28;19925;-38
2022/09/17 06:46:29;;;;;;;;;;;9.80;99.90;;;;;;12567310;28;19929;-38
2022/09/17 06:52:31;;;;;;;;;;;9.90;99.90;;;;;;12539447;28;19933;-40
2022/09/17 06:58:35;;;;;;;;;;;10.10;99.90;;;;;;12564691;28;20019;-38
2022/09/17 07:04:37;;;;;;;;;;;10.00;99.90;;;;;;12546161;28;21033;-38
2022/09/17 07:10:39;;;;;;;;;;;10.00;99.90;;;;;;12560970;28;20380;-38
2022/09/17 07:16:41;;;;;;;;;;;10.10;99.90;;;;;;12567675;28;19929;-38
2022/09/17 07:22:43;;;;;;;;;;;10.20;99.90;;;;;;12559910;28;19947;-39
2022/09/17 07:28:45;;;;;;;;;;;10.20;99.90;;;;;;12531819;28;19929;-38
2022/09/17 07:34:48;;;;;;;;;;;10.20;99.90;;;;;;12508195;28;19932;-38
2022/09/17 07:40:57;;;;;;;;;;;10.40;99.90;;;;;;12510772;28;20423;-38
2022/09/17 07:46:58;;;;;;;;;;;10.60;99.90;;;;;;12512606;28;21007;-38
2022/09/17 07:53:00;;;;;;;;;;;10.70;99.90;;;;;;12518248;23;19951;-79
2022/09/17 07:59:02;;;;;;;;;;;10.90;99.90;;;;;;12462824;28;19926;-79
2022/09/17 08:05:04;;;;;;;;;;;10.90;99.90;;;;;;13213014;23;19933;-83
2022/09/17 08:11:08;;;;;;;;;;;11.20;99.90;;;;;;12487031;28;19931;-84
2022/09/17 08:17:10;;;;;;;;;;;11.30;99.90;;;;;;12507795;28;19925;-83
2022/09/17 08:23:11;;;;;;;;;;;11.40;99.90;;;;;;12500685;28;19929;-83
2022/09/17 08:29:13;;;;;;;;;;;11.60;99.90;;;;;;12521732;28;19925;-84
2022/09/17 08:35:18;;;;;;;;;;;11.70;99.90;;;;;;12506941;28;19925;-83
2022/09/17 08:42:13;;;;;;;;;;;11.80;99.90;;;;;;12490196;28;19928;-83
2022/09/17 08:48:54;;;;;;;;;;;12.10;99.90;;;;;;12474028;28;19936;-84
2022/09/17 08:55:30;;;;;;;;;;;12.20;99.90;;;;;;12472423;28;20052;-82
2022/09/17 09:01:49;;;;;;;;;;;12.30;99.90;;;;;;12483041;28;19974;-85
2022/09/17 09:08:24;;;;;;;;;;;12.60;99.90;;;;;;12482559;28;19925;-84
2022/09/17 09:29:12;;;;;;;;;;;12.80;99.90;;;;;;12497217;28;19967;-86
2022/09/17 09:42:28;;;;;;;;;;;13.00;99.90;;;;;;12489205;28;19958;-82
2022/09/17 09:48:48;;;;;;;;;;;13.00;99.90;;;;;;12470839;28;20519;-84
2022/09/17 09:55:09;;;;;;;;;;;13.30;99.90;;;;;;12443457;28;20206;-84
2022/09/17 10:01:21;;;;;;;;;;;13.60;99.90;;;;;;12446335;28;20384;-83
2022/09/17 10:07:23;;;;;;;;;;;13.60;99.90;;;;;;12457235;28;19937;-84
2022/09/17 10:13:25;;;;;;;;;;;13.50;99.90;;;;;;12469448;28;20384;-84
2022/09/17 10:19:27;;;;;;;;;;;13.90;99.90;;;;;;12463530;28;19936;-84
2022/09/17 10:25:33;;;;;;;;;;;14.20;99.90;;;;;;12468923;28;19933;-84
2022/09/17 10:31:48;;;;;;;;;;;14.20;99.90;;;;;;12459702;28;19956;-84
2022/09/17 10:37:51;;;;;;;;;;;14.10;99.90;;;;;;12466173;28;19925;-82
2022/09/17 10:43:53;;;;;;;;;;;14.10;99.90;;;;;;12480647;28;19925;-84
2022/09/17 10:49:56;;;;;;;;;;;13.90;99.90;;;;;;12476429;28;19933;-83
2022/09/17 10:56:21;;;;;;;;;;;13.90;99.90;;;;;;12470727;28;19925;-84
2022/09/17 11:02:41;;;;;;;;;;;13.70;99.90;;;;;;12464194;28;19930;-83
2022/09/17 11:08:54;;;;;;;;;;;14.00;99.90;;;;;;12441322;28;20417;-84
2022/09/17 11:15:15;;;;;;;;;;;13.80;99.90;;;;;;12470254;28;20404;-84
2022/09/17 11:21:26;;;;;;;;;;;14.00;99.90;;;;;;12455268;28;19936;-84
2022/09/17 11:27:39;;;;;;;;;;;14.10;99.90;;;;;;12455853;28;19929;-84
2022/09/17 11:33:40;;;;;;;;;;;13.90;99.90;;;;;;12454763;28;20308;-83
2022/09/17 11:39:48;;;;;;;;;;;14.10;99.90;;;;;;12450995;28;19929;-83
2022/09/17 11:46:01;;;;;;;;;;;14.30;99.90;;;;;;12446599;28;19952;-83
2022/09/17 11:52:10;;;;;;;;;;;14.20;99.90;;;;;;12450980;28;19929;-82
2022/09/17 11:58:20;;;;;;;;;;;14.10;99.90;;;;;;12465908;28;19925;-82
2022/09/17 12:04:36;;;;;;;;;;;13.30;99.90;;;;;;12458697;28;20016;-82
2022/09/17 12:10:45;;;;;;;;;;;13.60;99.90;;;;;;12465897;28;19932;-83
2022/09/17 12:16:48;;;;;;;;;;;13.50;99.90;;;;;;12466644;28;19925;-83
2022/09/17 12:22:50;;;;;;;;;;;13.40;99.90;;;;;;12470726;28;19995;-84
2022/09/17 12:29:00;;;;;;;;;;;13.70;99.90;;;;;;12474100;28;19932;-84
2022/09/17 12:35:01;;;;;;;;;;;13.70;99.90;;;;;;12460111;28;20289;-84
2022/09/17 12:41:09;;;;;;;;;;;14.10;99.90;;;;;;12471261;28;19929;-84
2022/09/17 12:47:26;;;;;;;;;;;15.20;99.90;;;;;;12466630;28;19925;-83
2022/09/17 12:53:29;;;;;;;;;;;14.90;99.90;;;;;;12459284;28;19933;-83
2022/09/17 12:59:33;;;;;;;;;;;14.40;99.90;;;;;;12457637;28;19925;-83
2022/09/17 13:05:47;;;;;;;;;;;14.70;99.90;;;;;;12471402;28;20767;-84
2022/09/17 13:11:48;;;;;;;;;;;15.10;99.90;;;;;;12455129;28;19929;-83
2022/09/17 13:17:54;;;;;;;;;;;15.30;99.90;;;;;;12468159;28;19932;-82
2022/09/17 13:24:18;;;;;;;;;;;15.20;99.90;;;;;;12469285;28;19957;-82
2022/09/17 13:30:20;;;;;;;;;;;14.80;99.90;;;;;;12457227;28;19925;-83
2022/09/17 13:36:42;;;;;;;;;;;14.80;99.90;;;;;;12481137;28;19933;-83
2022/09/17 13:42:45;;;;;;;;;;;15.00;99.90;;;;;;12478128;28;19948;-83
2022/09/17 13:48:48;;;;;;;;;;;14.80;99.90;;;;;;12466911;28;19932;-83
2022/09/17 13:54:50;;;;;;;;;;;15.00;99.90;;;;;;12475013;28;19925;-83
2022/09/17 14:01:02;;;;;;;;;;;15.30;99.90;;;;;;12479410;28;19933;-83
2022/09/17 14:07:25;;;;;;;;;;;15.00;99.90;;;;;;12460619;28;19929;-83
2022/09/17 14:13:32;;;;;;;;;;;15.00;99.90;;;;;;12460176;28;20403;-82
2022/09/17 14:19:47;;;;;;;;;;;15.00;99.90;;;;;;12463410;28;19925;-84
2022/09/17 14:25:54;;;;;;;;;;;15.00;99.90;;;;;;12467447;28;19968;-83
2022/09/17 14:31:56;;;;;;;;;;;15.20;99.90;;;;;;12467702;28;20292;-83
2022/09/17 14:38:01;;;;;;;;;;;14.70;99.90;;;;;;12468567;28;19979;-82
2022/09/17 14:44:05;;;;;;;;;;;14.00;99.90;;;;;;12468717;28;19925;-82
2022/09/17 14:50:25;;;;;;;;;;;13.80;99.90;;;;;;12469036;28;20016;-84
2022/09/17 14:56:27;;;;;;;;;;;13.70;99.90;;;;;;12461588;28;19936;-83
2022/09/17 15:02:29;;;;;;;;;;;14.10;99.90;;;;;;12461438;28;19932;-83
2022/09/17 15:08:30;;;;;;;;;;;14.50;99.90;;;;;;12475600;28;19929;-84
2022/09/17 15:14:35;;;;;;;;;;;14.80;99.90;;;;;;12458550;28;19926;-83
2022/09/17 15:20:36;;;;;;;;;;;14.50;99.90;;;;;;12474810;28;19930;-83
2022/09/17 15:26:40;;;;;;;;;;;14.20;99.90;;;;;;12467340;28;19929;-83
2022/09/17 15:32:49;;;;;;;;;;;14.70;99.90;;;;;;12460149;28;20308;-82
2022/09/17 15:38:51;;;;;;;;;;;14.30;99.90;;;;;;12471919;28;20297;-83
2022/09/17 15:45:05;;;;;;;;;;;14.60;99.90;;;;;;12466000;28;20300;-83
2022/09/17 15:51:20;;;;;;;;;;;14.70;99.90;;;;;;12457417;28;19925;-83
2022/09/17 15:57:22;;;;;;;;;;;14.40;99.90;;;;;;12470255;28;19926;-83
2022/09/17 16:03:44;;;;;;;;;;;14.10;99.90;;;;;;12463156;28;19932;-85
2022/09/17 16:09:52;;;;;;;;;;;14.20;99.90;;;;;;12464246;28;19933;-83
2022/09/17 16:15:54;;;;;;;;;;;14.00;99.90;;;;;;12463119;28;19925;-82
2022/09/17 16:21:56;;;;;;;;;;;14.30;99.90;;;;;;12465813;28;19936;-82
2022/09/17 16:27:59;;;;;;;;;;;13.80;99.90;;;;;;12460034;28;19932;-83
2022/09/17 16:34:01;;;;;;;;;;;13.40;99.90;;;;;;12463382;28;19971;-81
2022/09/17 16:40:05;;;;;;;;;;;13.20;99.90;;;;;;12471521;28;21436;-82
2022/09/17 16:46:09;;;;;;;;;;;13.20;99.90;;;;;;12460193;28;20016;-82
2022/09/17 16:52:11;;;;;;;;;;;13.00;99.90;;;;;;12459691;28;20004;-83
2022/09/17 16:58:13;;;;;;;;;;;12.90;99.90;;;;;;12463418;28;19936;-83
2022/09/17 17:04:15;;;;;;;;;;;12.90;99.90;;;;;;12473566;28;19925;-83
2022/09/17 17:10:17;;;;;;;;;;;12.80;99.90;;;;;;12457677;28;19926;-84
2022/09/17 17:16:19;;;;;;;;;;;12.60;99.90;;;;;;12466457;28;19937;-83
2022/09/17 17:22:20;;;;;;;;;;;12.60;99.90;;;;;;12456884;28;20376;-83
2022/09/17 17:28:22;;;;;;;;;;;12.30;99.90;;;;;;12458715;28;19925;-82
2022/09/17 17:34:24;;;;;;;;;;;12.30;99.90;;;;;;12461272;28;20395;-82
2022/09/17 17:40:26;;;;;;;;;;;12.20;99.90;;;;;;12453999;28;20301;-82
2022/09/17 17:46:28;;;;;;;;;;;12.20;99.90;;;;;;12462515;28;20011;-82
2022/09/17 17:52:30;;;;;;;;;;;12.00;99.90;;;;;;12454308;28;20016;-83
2022/09/17 17:58:33;;;;;;;;;;;12.00;99.90;;;;;;12461922;28;20301;-83
2022/09/17 18:04:34;;;;;;;;;;;12.00;99.90;;;;;;12460000;28;19925;-83
2022/09/17 18:10:36;;;;;;;;;;;12.10;99.90;;;;;;12456135;28;20074;-82
2022/09/17 18:16:38;;;;;;;;;;;11.90;99.90;;;;;;12459922;28;19925;-81
2022/09/17 18:22:40;;;;;;;;;;;11.70;99.90;;;;;;12474690;28;19999;-82
2022/09/17 18:28:42;;;;;;;;;;;11.70;99.90;;;;;;12482104;28;19926;-82
2022/09/17 18:34:44;;;;;;;;;;;11.60;99.90;;;;;;12465915;28;19951;-82
2022/09/17 18:40:46;;;;;;;;;;;11.50;99.90;;;;;;12460921;28;20411;-82
2022/09/17 18:46:48;;;;;;;;;;;11.50;99.90;;;;;;12468265;28;19933;-82
2022/09/17 18:52:51;;;;;;;;;;;11.40;99.90;;;;;;12471759;28;19972;-82
2022/09/17 18:58:53;;;;;;;;;;;11.20;99.90;;;;;;12461946;28;19925;-83
2022/09/17 19:04:55;;;;;;;;;;;11.10;99.90;;;;;;12467724;28;19926;-82
2022/09/17 19:10:57;;;;;;;;;;;11.20;99.90;;;;;;12470514;28;19925;-82
2022/09/17 19:16:59;;;;;;;;;;;11.10;99.90;;;;;;12475095;28;19925;-83
2022/09/17 19:23:00;;;;;;;;;;;11.00;99.90;;;;;;12479617;28;19944;-83
2022/09/17 19:29:03;;;;;;;;;;;10.90;99.90;;;;;;12461871;28;19933;-82
2022/09/17 19:35:06;;;;;;;;;;;10.90;99.90;;;;;;12465139;28;19929;-82
2022/09/17 19:41:21;;;;;;;;;;;10.80;99.90;;;;;;12469571;28;20609;-82
2022/09/17 19:47:23;;;;;;;;;;;10.80;99.90;;;;;;12474004;28;19932;-82
2022/09/17 19:53:25;;;;;;;;;;;10.80;99.90;;;;;;12467273;28;20000;-82
2022/09/17 19:59:27;;;;;;;;;;;10.80;99.90;;;;;;12469362;28;19940;-81
2022/09/17 20:05:29;;;;;;;;;;;10.80;99.90;;;;;;12465760;28;19978;-81
2022/09/17 20:11:31;;;;;;;;;;;10.80;99.90;;;;;;12465689;28;19925;-82
2022/09/17 20:17:33;;;;;;;;;;;10.80;99.90;;;;;;12469776;28;19925;-82
2022/09/17 20:23:34;;;;;;;;;;;10.80;99.90;;;;;;12472921;28;19932;-82
2022/09/17 20:29:36;;;;;;;;;;;10.70;99.90;;;;;;12474055;28;19929;-82
2022/09/17 20:35:38;;;;;;;;;;;10.60;99.90;;;;;;12463707;28;20292;-82
2022/09/17 20:41:41;;;;;;;;;;;10.70;99.90;;;;;;12458918;28;19925;-82
2022/09/17 20:47:42;;;;;;;;;;;10.60;99.90;;;;;;12478402;28;19979;-81
2022/09/17 20:53:47;;;;;;;;;;;10.50;99.90;;;;;;12470499;28;19936;-82
2022/09/17 20:59:52;;;;;;;;;;;10.50;99.90;;;;;;12452895;28;19926;-82
2022/09/17 21:05:53;;;;;;;;;;;10.50;99.90;;;;;;12456203;28;19933;-82
2022/09/17 21:11:55;;;;;;;;;;;10.50;99.90;;;;;;12467532;28;19929;-83
2022/09/17 21:17:57;;;;;;;;;;;10.50;99.90;;;;;;12481762;28;20289;-83
2022/09/17 21:24:00;;;;;;;;;;;10.40;99.90;;;;;;12470648;28;19932;-83
2022/09/17 21:30:03;;;;;;;;;;;10.40;99.90;;;;;;12470284;28;20079;-82
2022/09/17 21:36:09;;;;;;;;;;;10.40;99.90;;;;;;12458443;28;19936;-82
2022/09/17 21:42:11;;;;;;;;;;;10.30;99.90;;;;;;12464509;28;20007;-82
2022/09/17 21:48:13;;;;;;;;;;;10.20;99.90;;;;;;12464958;28;19929;-82
2022/09/17 21:54:15;;;;;;;;;;;10.20;99.90;;;;;;12456238;28;19925;-82
2022/09/17 22:00:18;;;;;;;;;;;10.10;99.90;;;;;;12468314;28;20385;-82
2022/09/17 22:06:25;;;;;;;;;;;10.10;99.90;;;;;;12463615;28;19929;-82
2022/09/17 22:12:27;;;;;;;;;;;10.20;99.90;;;;;;12463135;28;19929;-82
2022/09/17 22:18:33;;;;;;;;;;;10.00;99.90;;;;;;12478563;28;19949;-82
2022/09/17 22:24:34;;;;;;;;;;;10.00;99.90;;;;;;12459857;28;20293;-82
2022/09/17 22:30:36;;;;;;;;;;;10.00;99.90;;;;;;12466124;28;19979;-82
2022/09/17 22:36:38;;;;;;;;;;;10.00;99.90;;;;;;12472283;28;20404;-81
2022/09/17 22:42:40;;;;;;;;;;;10.00;99.90;;;;;;12482891;28;19932;-83
2022/09/17 22:48:42;;;;;;;;;;;10.00;99.90;;;;;;12473044;28;19925;-81
2022/09/17 22:54:43;;;;;;;;;;;9.90;99.90;;;;;;12468366;28;19936;-82
2022/09/17 23:00:45;;;;;;;;;;;9.90;99.90;;;;;;12467890;28;19936;-81
2022/09/17 23:06:47;;;;;;;;;;;9.90;99.90;;;;;;12472604;28;19937;-82
2022/09/17 23:12:48;;;;;;;;;;;9.90;99.90;;;;;;12465026;28;19925;-83
2022/09/17 23:18:50;;;;;;;;;;;9.90;99.90;;;;;;12471672;28;20380;-82
2022/09/17 23:24:51;;;;;;;;;;;9.80;99.90;;;;;;12470408;28;19929;-83
2022/09/17 23:30:53;;;;;;;;;;;9.90;99.90;;;;;;12470880;28;20270;-83
2022/09/17 23:36:55;;;;;;;;;;;9.80;99.90;;;;;;12469825;28;19953;-82
2022/09/17 23:42:57;;;;;;;;;;;9.80;99.90;;;;;;12485194;28;19929;-82
2022/09/17 23:48:59;;;;;;;;;;;9.70;99.90;;;;;;12463298;28;19929;-82
2022/09/17 23:55:00;;;;;;;;;;;9.70;99.90;;;;;;12464555;28;19937;-82
